createdAt,value
2023-03-10T00:30:24.083Z,999.0
2023-03-10T00:45:24.168Z,999.0
2023-03-10T01:00:24.390Z,998.0
2023-03-10T01:15:24.157Z,998.0
2023-03-10T01:30:33.384Z,998.0
2023-03-10T01:45:33.297Z,998.0
2023-03-10T02:00:33.499Z,998.0
2023-03-10T02:15:23.634Z,998.0
2023-03-10T02:30:23.602Z,998.0
2023-03-10T02:45:23.720Z,998.0
2023-03-10T03:00:23.765Z,998.0
2023-03-10T03:15:23.572Z,998.0
2023-03-10T03:30:23.754Z,997.0
2023-03-10T03:45:23.492Z,997.0
2023-03-10T04:00:23.693Z,997.0
2023-03-10T04:15:23.870Z,997.0
2023-03-10T04:30:23.934Z,997.0
2023-03-10T04:45:23.676Z,997.0
2023-03-10T05:00:24.395Z,996.7
2023-03-10T05:15:24.064Z,996.0
2023-03-10T05:30:23.862Z,996.0
2023-03-10T05:45:23.858Z,996.0
2023-03-10T06:00:24.223Z,996.0
2023-03-10T06:15:25.747Z,996.0
2023-03-10T06:30:33.154Z,996.0
2023-03-10T06:45:33.307Z,996.0
2023-03-10T07:00:33.283Z,995.7
2023-03-10T07:15:23.365Z,995.0
2023-03-10T07:30:23.552Z,995.0
2023-03-10T07:45:24.024Z,995.0
2023-03-10T08:00:23.744Z,995.3
2023-03-10T08:15:23.504Z,996.0
2023-03-10T08:30:23.740Z,996.0
2023-03-10T08:45:23.974Z,996.0
2023-03-10T09:00:23.942Z,996.0
2023-03-10T09:15:23.748Z,996.0
2023-03-10T09:30:23.848Z,996.3
2023-03-10T09:45:23.761Z,996.0
2023-03-10T10:00:23.829Z,997.0
2023-03-10T10:15:23.777Z,996.7
2023-03-10T10:30:26.463Z,996.0
2023-03-10T10:45:23.925Z,996.3
2023-03-10T11:00:24.876Z,996.0
2023-03-10T11:15:23.890Z,996.3
2023-03-10T11:30:25.843Z,996.3
2023-03-10T11:45:23.519Z,997.0
2023-03-10T12:00:25.730Z,997.0
2023-03-10T12:15:23.945Z,997.0
2023-03-10T12:30:25.839Z,997.0
2023-03-10T12:45:23.695Z,997.0
2023-03-10T13:00:23.758Z,997.0
2023-03-10T13:15:24.858Z,997.0
2023-03-10T13:30:23.883Z,997.0
2023-03-10T13:45:24.013Z,997.0
2023-03-10T14:00:24.000Z,997.0
2023-03-10T14:15:23.869Z,997.0
2023-03-10T14:30:33.167Z,997.0
2023-03-10T14:45:33.493Z,997.0
2023-03-10T15:00:33.251Z,998.0
2023-03-10T15:15:23.104Z,998.0
2023-03-10T15:30:23.469Z,999.0
2023-03-10T15:45:23.648Z,999.3
2023-03-10T16:00:23.610Z,999.5
2023-03-10T16:15:23.688Z,1000.0
2023-03-10T16:30:23.871Z,1000.0
2023-03-10T16:45:23.938Z,1000.0
2023-03-10T17:00:24.794Z,1001.0
2023-03-10T17:15:23.993Z,1001.0
2023-03-10T17:30:24.095Z,1001.0
2023-03-10T17:45:23.844Z,1001.0
2023-03-10T18:00:23.680Z,1001.0
2023-03-10T18:15:24.040Z,1001.0
2023-03-10T18:30:23.890Z,1001.0
2023-03-10T18:45:23.847Z,1001.7
2023-03-10T19:00:23.969Z,1001.5
2023-03-10T19:15:23.986Z,1002.0
2023-03-10T19:30:23.960Z,1002.5
2023-03-10T19:45:33.088Z,1003.0
2023-03-10T20:00:33.365Z,1003.0
2023-03-10T20:15:23.190Z,1003.3
2023-03-10T20:30:23.394Z,1004.0
2023-03-10T20:45:23.451Z,1005.0
2023-03-10T21:00:23.388Z,1005.0
2023-03-10T21:15:23.505Z,1005.0
2023-03-10T21:30:23.602Z,1007.0
2023-03-10T21:45:23.572Z,1008.0
2023-03-10T22:00:23.697Z,1008.0
2023-03-10T22:15:23.746Z,1008.0
2023-03-10T22:30:23.771Z,1008.0
2023-03-10T22:45:23.793Z,1008.3
2023-03-10T23:00:49.825Z,1009.0
2023-03-10T23:15:25.261Z,1009.0
2023-03-10T23:30:23.335Z,1009.0
2023-03-10T23:45:23.540Z,1009.0
